createdAt,value
2022-09-21T00:02:32.692Z,17.04
2022-09-21T00:07:35.215Z,17.18
2022-09-21T00:12:38.561Z,15.84
2022-09-21T00:17:41.007Z,15.84
2022-09-21T00:22:44.104Z,16.67
2022-09-21T00:27:49.882Z,16.94
2022-09-21T00:32:53.208Z,17.08
2022-09-21T00:37:55.597Z,17.33
2022-09-21T00:43:00.893Z,15.79
2022-09-21T00:48:03.447Z,16.34
2022-09-21T00:53:05.912Z,17.15
2022-09-21T00:58:10.056Z,17.50
2022-09-21T01:03:12.970Z,17.09
2022-09-21T01:08:16.317Z,15.32
2022-09-21T01:13:27.080Z,16.41
2022-09-21T01:18:32.409Z,17.25
2022-09-21T01:23:38.158Z,17.65
2022-09-21T01:28:40.527Z,16.55
2022-09-21T01:33:47.651Z,16.09
2022-09-21T01:38:51.264Z,17.02
2022-09-21T01:43:55.933Z,17.37
2022-09-21T01:49:00.796Z,17.66
2022-09-21T01:54:08.025Z,17.74
2022-09-21T01:59:13.381Z,16.30
2022-09-21T02:04:15.848Z,16.24
2022-09-21T02:09:19.226Z,17.18
2022-09-21T02:14:23.889Z,17.60
2022-09-21T02:19:29.227Z,17.53
2022-09-21T02:24:32.021Z,15.74
2022-09-21T02:29:38.090Z,16.58
2022-09-21T02:34:45.633Z,17.38
2022-09-21T02:39:56.036Z,17.38
2022-09-21T02:45:10.678Z,15.40
2022-09-21T02:50:16.632Z,15.46
2022-09-21T02:55:19.224Z,16.54
2022-09-21T03:00:21.881Z,16.88
2022-09-21T03:05:24.403Z,17.02
2022-09-21T03:10:26.840Z,17.07
2022-09-21T03:15:29.243Z,16.65
2022-09-21T03:20:32.858Z,15.20
2022-09-21T03:25:35.917Z,16.20
2022-09-21T03:30:38.366Z,16.64
2022-09-21T03:35:41.208Z,16.82
2022-09-21T03:40:46.436Z,16.99
2022-09-21T03:45:48.844Z,17.14
2022-09-21T03:50:51.299Z,17.22
2022-09-21T03:55:53.691Z,17.24
2022-09-21T04:01:00.920Z,16.04
2022-09-21T04:06:08.739Z,15.06
2022-09-21T04:11:12.082Z,16.23
2022-09-21T04:16:14.595Z,16.70
2022-09-21T04:21:17.845Z,16.79
2022-09-21T04:26:21.815Z,15.11
2022-09-21T04:31:24.639Z,15.46
2022-09-21T04:36:30.225Z,16.23
2022-09-21T04:41:35.740Z,16.56
2022-09-21T04:46:38.502Z,16.83
2022-09-21T04:51:40.996Z,16.98
2022-09-21T04:56:43.429Z,15.87
2022-09-21T05:01:45.947Z,15.59
2022-09-21T05:06:48.426Z,16.49
2022-09-21T05:11:51.363Z,16.97
2022-09-21T05:16:53.757Z,17.31
2022-09-21T05:21:56.154Z,16.38
2022-09-21T05:26:58.622Z,16.09
2022-09-21T05:32:01.288Z,17.29
2022-09-21T05:37:06.651Z,17.33
2022-09-21T05:42:10.370Z,15.57
2022-09-21T05:47:12.895Z,16.46
2022-09-21T05:52:18.400Z,17.28
2022-09-21T05:57:30.941Z,17.49
2022-09-21T06:02:33.631Z,15.71
2022-09-21T06:07:36.283Z,16.30
2022-09-21T06:12:38.922Z,17.55
2022-09-21T06:17:41.690Z,18.22
2022-09-21T06:22:44.208Z,16.89
2022-09-21T06:27:46.668Z,16.87
2022-09-21T06:32:49.076Z,18.36
2022-09-21T06:37:52.820Z,17.27
2022-09-21T06:43:00.283Z,16.82
2022-09-21T06:48:04.242Z,18.29
2022-09-21T06:53:06.788Z,17.31
2022-09-21T06:58:09.546Z,16.81
2022-09-21T07:03:13.344Z,18.08
2022-09-21T07:13:39.864Z,18.05
2022-09-21T07:18:43.822Z,16.99
2022-09-21T07:23:46.671Z,16.37
2022-09-21T07:28:49.121Z,18.17
2022-09-21T07:33:59.034Z,17.32
2022-09-21T07:39:06.076Z,17.38
2022-09-21T07:44:17.260Z,18.19
2022-09-21T07:49:19.676Z,16.91
2022-09-21T07:54:22.350Z,18.31
2022-09-21T07:59:24.759Z,17.75
2022-09-21T08:04:27.477Z,17.55
2022-09-21T08:09:30.073Z,18.21
2022-09-21T08:14:32.820Z,16.83
2022-09-21T08:19:38.698Z,18.03
2022-09-21T08:24:47.168Z,17.20
2022-09-21T08:29:50.680Z,17.85
2022-09-21T08:34:53.220Z,18.45
2022-09-21T08:39:55.691Z,17.04
2022-09-21T08:45:01.626Z,16.46
2022-09-21T08:50:05.547Z,17.97
2022-09-21T08:55:17.907Z,16.91
2022-09-21T09:00:20.567Z,16.18
2022-09-21T09:05:23.739Z,17.92
2022-09-21T09:10:33.836Z,17.44
2022-09-21T09:15:40.914Z,16.59
2022-09-21T09:20:47.345Z,17.99
2022-09-21T09:25:51.651Z,16.80
2022-09-21T09:30:57.473Z,17.44
2022-09-21T09:36:03.615Z,17.80
2022-09-21T09:41:09.471Z,16.81
2022-09-21T09:46:13.568Z,18.40
2022-09-21T09:51:16.450Z,17.93
2022-09-21T09:56:18.988Z,17.18
2022-09-21T10:01:24.335Z,18.65
2022-09-21T10:06:34.689Z,17.78
2022-09-21T10:11:38.057Z,17.00
2022-09-21T10:16:41.734Z,18.31
2022-09-21T10:21:49.919Z,17.24
2022-09-21T10:26:56.383Z,16.90
2022-09-21T10:32:01.757Z,17.03
2022-09-21T10:37:24.105Z,18.21
2022-09-21T10:42:29.289Z,17.32
2022-09-21T10:47:31.647Z,17.13
2022-09-21T10:52:35.923Z,18.01
2022-09-21T10:57:41.199Z,17.17
2022-09-21T11:02:46.551Z,16.77
2022-09-21T11:07:52.161Z,16.44
2022-09-21T11:12:54.556Z,16.22
2022-09-21T11:17:59.960Z,16.01
2022-09-21T11:23:10.849Z,16.15
2022-09-21T11:28:16.014Z,16.77
2022-09-21T11:33:28.010Z,17.04
2022-09-21T11:38:34.686Z,16.27
2022-09-21T11:43:49.229Z,17.08
2022-09-21T11:48:54.581Z,17.68
2022-09-21T11:54:09.497Z,18.01
2022-09-21T11:59:15.069Z,18.24
2022-09-21T12:04:24.695Z,18.64
2022-09-21T12:09:28.226Z,17.23
2022-09-21T12:14:30.728Z,18.07
2022-09-21T12:19:36.203Z,17.62
2022-09-21T12:24:42.952Z,17.15
2022-09-21T12:29:47.991Z,17.48
2022-09-21T12:34:55.651Z,16.85
2022-09-21T12:40:03.027Z,18.15
2022-09-21T12:45:11.993Z,17.66
2022-09-21T12:50:28.123Z,16.39
2022-09-21T12:55:33.457Z,17.28
2022-09-21T13:00:42.462Z,17.81
2022-09-21T13:05:45.844Z,18.08
2022-09-21T13:10:54.989Z,18.56
2022-09-21T13:15:59.272Z,19.00
2022-09-21T13:21:14.977Z,17.93
2022-09-21T13:26:28.688Z,16.69
2022-09-21T13:31:40.774Z,18.32
2022-09-21T13:36:43.987Z,19.75
2022-09-21T13:42:03.619Z,18.50
2022-09-21T13:47:08.342Z,17.81
2022-09-21T13:52:11.693Z,18.41
2022-09-21T13:57:17.349Z,18.42
2022-09-21T14:02:24.186Z,18.61
2022-09-21T14:07:30.274Z,16.90
2022-09-21T14:12:35.040Z,17.06
2022-09-21T14:17:38.549Z,17.84
2022-09-21T14:22:42.403Z,18.08
2022-09-21T14:27:46.350Z,18.08
2022-09-21T14:32:51.996Z,18.35
2022-09-21T14:37:56.165Z,18.58
2022-09-21T14:43:00.515Z,19.01
2022-09-21T14:48:05.870Z,18.03
2022-09-21T14:53:10.362Z,16.98
2022-09-21T14:58:14.232Z,18.17
2022-09-21T15:03:19.673Z,18.32
2022-09-21T15:08:45.250Z,16.85
2022-09-21T15:13:47.633Z,17.65
2022-09-21T15:18:51.277Z,17.75
2022-09-21T15:23:53.998Z,18.31
2022-09-21T15:29:12.538Z,17.53
2022-09-21T15:34:15.270Z,17.37
2022-09-21T15:39:20.618Z,17.85
2022-09-21T15:44:26.373Z,16.09
2022-09-21T15:49:29.616Z,17.10
2022-09-21T15:54:35.294Z,17.64
2022-09-21T15:59:37.782Z,16.92
2022-09-21T16:04:47.945Z,15.95
2022-09-21T16:09:50.404Z,16.74
2022-09-21T16:14:53.694Z,17.06
2022-09-21T16:19:57.573Z,17.15
2022-09-21T16:25:01.014Z,17.20
2022-09-21T16:30:04.290Z,17.29
2022-09-21T16:35:09.640Z,17.37
2022-09-21T16:40:14.060Z,17.40
2022-09-21T16:45:22.894Z,17.50
2022-09-21T16:50:25.538Z,17.45
2022-09-21T16:55:29.289Z,17.43
2022-09-21T17:00:34.666Z,17.38
2022-09-21T17:05:37.131Z,17.40
2022-09-21T17:10:45.270Z,17.31
2022-09-21T17:15:48.801Z,16.80
2022-09-21T17:20:51.421Z,15.50
2022-09-21T17:25:53.908Z,16.21
2022-09-21T17:30:56.348Z,16.46
2022-09-21T17:35:58.765Z,16.58
2022-09-21T17:41:03.430Z,16.60
2022-09-21T17:46:11.257Z,16.65
2022-09-21T17:51:33.754Z,16.73
2022-09-21T17:56:43.551Z,16.83
2022-09-21T18:01:46.077Z,16.66
2022-09-21T18:06:48.711Z,16.67
2022-09-21T18:12:01.754Z,16.59
2022-09-21T18:17:06.397Z,16.63
2022-09-21T18:22:11.817Z,16.70
2022-09-21T18:27:18.201Z,16.82
2022-09-21T18:32:22.564Z,16.91
2022-09-21T18:37:29.025Z,16.85
2022-09-21T18:42:31.539Z,16.73
2022-09-21T18:47:33.906Z,16.80
2022-09-21T18:52:37.308Z,16.77
2022-09-21T18:57:39.841Z,16.61
2022-09-21T19:02:59.042Z,16.50
2022-09-21T19:08:08.206Z,16.53
2022-09-21T19:13:15.103Z,16.44
2022-09-21T19:18:19.936Z,16.18
2022-09-21T19:23:25.264Z,16.19
2022-09-21T19:28:28.853Z,16.29
2022-09-21T19:33:49.540Z,16.18
2022-09-21T19:38:53.428Z,16.17
2022-09-21T19:44:02.396Z,16.17
2022-09-21T19:49:10.979Z,16.10
2022-09-21T19:54:18.104Z,16.03
2022-09-21T19:59:23.523Z,16.05
2022-09-21T20:04:34.010Z,16.09
2022-09-21T20:09:39.746Z,16.13
2022-09-21T20:14:47.172Z,16.09
2022-09-21T20:19:52.976Z,16.08
2022-09-21T20:25:16.274Z,16.11
2022-09-21T20:30:20.275Z,16.12
2022-09-21T20:35:25.155Z,16.11
2022-09-21T20:40:28.876Z,16.03
2022-09-21T20:45:33.082Z,16.18
2022-09-21T20:50:36.754Z,16.08
2022-09-21T20:55:39.749Z,15.91
2022-09-21T21:00:42.531Z,15.87
2022-09-21T21:05:45.151Z,15.91
2022-09-21T21:10:47.643Z,15.95
2022-09-21T21:15:52.851Z,15.92
2022-09-21T21:20:55.281Z,15.98
2022-09-21T21:26:04.441Z,16.12
2022-09-21T21:31:07.152Z,16.12
2022-09-21T21:36:10.813Z,16.24
2022-09-21T21:41:14.126Z,16.16
2022-09-21T21:46:16.692Z,16.27
2022-09-21T21:51:19.267Z,16.35
2022-09-21T21:56:23.153Z,16.36
2022-09-21T22:01:26.860Z,16.48
2022-09-21T22:06:30.462Z,16.48
2022-09-21T22:11:33.287Z,16.16
2022-09-21T22:16:37.050Z,14.47
2022-09-21T22:21:46.005Z,15.26
2022-09-21T22:26:50.977Z,15.77
2022-09-21T22:31:55.242Z,15.97
2022-09-21T22:36:58.552Z,16.16
2022-09-21T22:42:01.389Z,16.26
2022-09-21T22:47:03.874Z,16.34
2022-09-21T22:52:06.418Z,16.39
2022-09-21T22:57:08.847Z,16.55
2022-09-21T23:02:11.506Z,16.13
2022-09-21T23:07:16.240Z,14.35
2022-09-21T23:12:19.351Z,15.19
2022-09-21T23:17:21.746Z,15.78
2022-09-21T23:22:24.293Z,16.03
2022-09-21T23:27:28.839Z,16.14
2022-09-21T23:32:31.296Z,16.20
2022-09-21T23:37:33.694Z,16.26
2022-09-21T23:42:36.097Z,16.38
2022-09-21T23:47:38.483Z,14.76
2022-09-21T23:52:40.885Z,15.16
2022-09-21T23:57:43.289Z,15.89
